createdAt,value
2023-09-09T00:02:21.672Z,20.96
2023-09-09T00:05:06.864Z,20.93
2023-09-09T00:07:52.058Z,20.91
2023-09-09T00:10:37.167Z,20.93
2023-09-09T00:13:22.369Z,20.94
2023-09-09T00:16:07.679Z,20.92
2023-09-09T00:18:52.733Z,20.89
2023-09-09T00:21:37.890Z,20.85
2023-09-09T00:24:23.044Z,20.81
2023-09-09T00:27:08.176Z,20.80
2023-09-09T00:29:53.185Z,20.75
2023-09-09T00:32:38.333Z,20.73
2023-09-09T00:35:23.554Z,20.69
2023-09-09T00:38:08.773Z,20.69
2023-09-09T00:40:53.986Z,20.66
2023-09-09T00:43:39.455Z,20.66
2023-09-09T00:46:24.747Z,20.64
2023-09-09T00:49:09.715Z,20.61
2023-09-09T00:51:54.885Z,20.61
2023-09-09T00:54:39.974Z,20.62
2023-09-09T00:57:25.028Z,20.59
2023-09-09T01:00:10.229Z,20.55
2023-09-09T01:02:55.359Z,20.55
2023-09-09T01:05:40.436Z,20.54
2023-09-09T01:08:25.450Z,20.50
2023-09-09T01:11:10.507Z,20.48
2023-09-09T01:13:55.803Z,20.50
2023-09-09T01:16:40.774Z,20.44
2023-09-09T01:19:25.883Z,20.43
2023-09-09T01:22:11.007Z,20.45
2023-09-09T01:24:56.208Z,20.41
2023-09-09T01:27:41.257Z,20.39
2023-09-09T01:30:26.411Z,20.38
2023-09-09T01:33:11.494Z,20.40
2023-09-09T01:35:56.580Z,20.38
2023-09-09T01:38:41.803Z,20.35
2023-09-09T01:41:26.860Z,20.34
2023-09-09T01:44:11.985Z,20.29
2023-09-09T01:46:57.044Z,20.32
2023-09-09T01:49:42.093Z,20.29
2023-09-09T01:52:27.305Z,20.28
2023-09-09T01:55:12.323Z,20.23
2023-09-09T01:57:57.359Z,20.23
2023-09-09T02:00:42.378Z,20.19
2023-09-09T02:03:27.619Z,20.15
2023-09-09T02:06:12.707Z,20.16
2023-09-09T02:08:57.989Z,20.16
2023-09-09T02:11:43.661Z,20.17
2023-09-09T02:14:28.604Z,20.13
2023-09-09T02:17:13.854Z,20.16
2023-09-09T02:19:58.853Z,20.14
2023-09-09T02:22:44.152Z,20.15
2023-09-09T02:25:29.241Z,20.14
2023-09-09T02:28:14.441Z,20.11
2023-09-09T02:30:59.557Z,20.11
2023-09-09T02:33:44.521Z,20.10
2023-09-09T02:36:29.746Z,20.06
2023-09-09T02:39:15.026Z,20.02
2023-09-09T02:42:00.136Z,20.02
2023-09-09T02:44:45.205Z,19.97
2023-09-09T02:47:30.289Z,19.94
2023-09-09T02:50:15.397Z,19.86
2023-09-09T02:53:00.458Z,19.86
2023-09-09T02:55:45.810Z,19.85
2023-09-09T02:58:30.905Z,19.85
2023-09-09T03:01:16.097Z,19.81
2023-09-09T03:04:01.191Z,19.83
2023-09-09T03:06:46.308Z,19.79
2023-09-09T03:09:31.522Z,19.78
2023-09-09T03:12:16.610Z,19.75
2023-09-09T03:15:01.755Z,19.77
2023-09-09T03:17:46.900Z,19.72
2023-09-09T03:20:32.160Z,19.70
2023-09-09T03:23:17.114Z,19.71
2023-09-09T03:26:02.263Z,19.69
2023-09-09T03:28:47.546Z,19.65
2023-09-09T03:31:32.695Z,19.62
2023-09-09T03:34:17.852Z,19.59
2023-09-09T03:37:02.989Z,19.57
2023-09-09T03:39:48.199Z,19.56
2023-09-09T03:42:33.353Z,19.55
2023-09-09T03:45:18.585Z,19.56
2023-09-09T03:48:03.531Z,19.54
2023-09-09T03:50:48.477Z,19.46
2023-09-09T03:53:33.471Z,19.45
2023-09-09T03:56:18.645Z,19.42
2023-09-09T03:59:03.903Z,19.42
2023-09-09T04:01:49.121Z,19.41
2023-09-09T04:04:34.465Z,19.36
2023-09-09T04:07:19.259Z,19.37
2023-09-09T04:10:04.259Z,19.41
2023-09-09T04:12:49.379Z,19.42
2023-09-09T04:15:34.525Z,19.41
2023-09-09T04:18:27.424Z,19.39
2023-09-09T04:21:19.472Z,19.38
2023-09-09T04:24:04.823Z,19.39
2023-09-09T04:26:49.847Z,19.33
2023-09-09T04:29:34.933Z,19.28
2023-09-09T04:32:19.924Z,19.27
2023-09-09T04:35:05.075Z,19.27
2023-09-09T04:37:50.300Z,19.22
2023-09-09T04:40:35.395Z,19.20
2023-09-09T04:43:20.566Z,19.20
2023-09-09T04:46:05.559Z,19.18
2023-09-09T04:48:50.690Z,19.15
2023-09-09T04:51:35.593Z,19.16
2023-09-09T04:54:20.736Z,19.12
2023-09-09T04:57:05.905Z,19.11
2023-09-09T04:59:50.906Z,19.09
2023-09-09T05:02:36.061Z,19.06
2023-09-09T05:05:21.211Z,19.05
2023-09-09T05:08:06.207Z,19.07
2023-09-09T05:10:51.103Z,19.06
2023-09-09T05:13:36.539Z,19.03
2023-09-09T05:16:22.010Z,19.01
2023-09-09T05:19:07.049Z,19.04
2023-09-09T05:21:52.225Z,19.05
2023-09-09T05:24:37.316Z,19.03
2023-09-09T05:27:22.682Z,19.08
2023-09-09T05:30:07.839Z,19.05
2023-09-09T05:32:53.280Z,19.11
2023-09-09T05:35:38.172Z,19.08
2023-09-09T05:38:23.246Z,19.12
2023-09-09T05:41:08.523Z,19.10
2023-09-09T05:43:53.448Z,19.20
2023-09-09T05:46:38.759Z,19.21
2023-09-09T05:49:36.153Z,19.21
2023-09-09T05:52:24.110Z,19.30
2023-09-09T05:55:09.173Z,19.32
2023-09-09T05:57:54.316Z,19.40
2023-09-09T06:00:39.474Z,19.44
2023-09-09T06:03:24.623Z,19.47
2023-09-09T06:06:10.048Z,19.53
2023-09-09T06:08:55.118Z,19.58
2023-09-09T06:11:40.424Z,19.63
2023-09-09T06:14:25.457Z,19.66
2023-09-09T06:17:10.420Z,19.71
2023-09-09T06:19:55.559Z,19.76
2023-09-09T06:22:40.657Z,19.83
2023-09-09T06:25:25.929Z,19.84
2023-09-09T06:28:10.957Z,21.88
2023-09-09T06:30:56.039Z,25.14
2023-09-09T06:33:44.047Z,27.16
2023-09-09T06:36:30.115Z,29.00
2023-09-09T06:39:15.309Z,30.45
2023-09-09T06:42:00.238Z,31.71
2023-09-09T06:44:45.294Z,32.66
2023-09-09T06:47:30.412Z,33.52
2023-09-09T06:50:15.441Z,34.22
2023-09-09T06:53:00.440Z,34.86
2023-09-09T06:55:45.387Z,35.39
2023-09-09T06:58:30.412Z,35.82
2023-09-09T07:01:15.315Z,36.18
2023-09-09T07:04:00.348Z,36.42
2023-09-09T07:07:00.042Z,36.87
2023-09-09T07:09:49.743Z,37.16
2023-09-09T07:12:34.883Z,37.34
2023-09-09T07:15:19.909Z,37.73
2023-09-09T07:18:05.065Z,37.87
2023-09-09T07:20:49.794Z,37.87
2023-09-09T07:23:34.868Z,37.29
2023-09-09T07:26:20.196Z,36.99
2023-09-09T07:29:05.034Z,35.88
2023-09-09T07:31:50.167Z,32.90
2023-09-09T07:34:35.149Z,30.51
2023-09-09T07:37:20.556Z,29.46
2023-09-09T07:40:05.452Z,28.22
2023-09-09T07:42:50.532Z,27.43
2023-09-09T07:45:35.596Z,26.96
2023-09-09T07:48:20.605Z,26.76
2023-09-09T07:51:05.919Z,26.28
2023-09-09T07:53:50.847Z,25.86
2023-09-09T07:56:35.901Z,25.70
2023-09-09T07:59:20.972Z,25.14
2023-09-09T08:02:06.162Z,24.89
2023-09-09T08:04:51.233Z,24.86
2023-09-09T08:07:36.286Z,24.98
2023-09-09T08:10:21.498Z,24.88
2023-09-09T08:13:06.542Z,24.67
2023-09-09T08:15:51.683Z,24.60
2023-09-09T08:18:36.627Z,24.52
2023-09-09T08:21:21.764Z,24.49
2023-09-09T08:24:06.915Z,24.55
2023-09-09T08:26:51.931Z,24.37
2023-09-09T08:29:37.051Z,24.41
2023-09-09T08:32:22.051Z,24.70
2023-09-09T08:35:07.318Z,25.06
2023-09-09T08:37:52.319Z,25.34
2023-09-09T08:40:37.527Z,25.09
2023-09-09T08:43:22.531Z,25.23
2023-09-09T08:46:07.755Z,25.33
2023-09-09T08:48:52.858Z,25.25
2023-09-09T08:51:37.942Z,25.28
2023-09-09T08:54:23.034Z,25.35
2023-09-09T08:57:08.155Z,25.36
2023-09-09T08:59:53.294Z,25.29
2023-09-09T09:02:38.561Z,25.27
2023-09-09T09:05:23.584Z,25.41
2023-09-09T09:08:08.607Z,25.56
2023-09-09T09:10:53.759Z,25.67
2023-09-09T09:13:38.913Z,25.64
2023-09-09T09:16:23.593Z,25.52
2023-09-09T09:19:08.815Z,25.49
2023-09-09T09:21:53.891Z,25.53
2023-09-09T09:24:39.267Z,25.82
2023-09-09T09:27:24.446Z,26.12
2023-09-09T09:30:09.418Z,26.27
2023-09-09T09:32:54.617Z,26.40
2023-09-09T09:35:39.581Z,26.51
2023-09-09T09:38:24.630Z,26.55
2023-09-09T09:41:09.680Z,26.73
2023-09-09T09:43:54.919Z,26.94
2023-09-09T09:46:40.025Z,27.02
2023-09-09T09:49:25.144Z,27.13
2023-09-09T09:52:10.508Z,27.21
2023-09-09T09:54:55.333Z,27.04
2023-09-09T09:57:40.483Z,27.14
2023-09-09T10:00:25.424Z,27.25
2023-09-09T10:03:10.661Z,27.01
2023-09-09T10:05:55.790Z,27.03
2023-09-09T10:08:40.817Z,26.78
2023-09-09T10:11:25.986Z,26.87
2023-09-09T10:14:11.017Z,26.84
2023-09-09T10:16:56.225Z,26.77
2023-09-09T10:19:41.130Z,26.76
2023-09-09T10:22:26.310Z,26.79
2023-09-09T10:25:11.447Z,26.85
2023-09-09T10:27:56.653Z,26.83
2023-09-09T10:30:41.778Z,26.65
2023-09-09T10:33:26.728Z,26.67
2023-09-09T10:36:11.836Z,26.81
2023-09-09T10:38:57.079Z,26.79
2023-09-09T10:41:42.227Z,26.72
2023-09-09T10:44:27.511Z,26.73
2023-09-09T10:47:12.642Z,26.76
2023-09-09T10:49:57.817Z,26.85
2023-09-09T10:52:42.616Z,27.02
2023-09-09T10:55:27.901Z,27.26
2023-09-09T10:58:12.924Z,27.21
2023-09-09T11:00:57.938Z,27.16
2023-09-09T11:03:42.954Z,27.17
2023-09-09T11:06:28.138Z,27.09
2023-09-09T11:09:13.162Z,27.11
2023-09-09T11:11:58.225Z,27.20
2023-09-09T11:14:43.444Z,27.14
2023-09-09T11:17:28.575Z,27.28
2023-09-09T11:20:13.703Z,27.28
2023-09-09T11:22:58.672Z,27.23
2023-09-09T11:25:43.763Z,26.99
2023-09-09T11:28:28.810Z,26.81
2023-09-09T11:31:14.043Z,26.66
2023-09-09T11:33:59.301Z,26.56
2023-09-09T11:36:44.482Z,26.63
2023-09-09T11:39:29.575Z,26.48
2023-09-09T11:42:14.706Z,26.35
2023-09-09T11:44:59.916Z,26.52
2023-09-09T11:47:44.880Z,26.31
2023-09-09T11:50:30.168Z,26.36
2023-09-09T11:53:15.352Z,26.52
2023-09-09T11:56:00.413Z,26.33
2023-09-09T11:58:45.693Z,26.47
2023-09-09T12:01:30.893Z,26.62
2023-09-09T12:04:16.133Z,26.80
2023-09-09T12:07:00.937Z,26.83
2023-09-09T12:09:45.930Z,26.82
2023-09-09T12:12:31.121Z,26.65
2023-09-09T12:15:16.130Z,26.74
2023-09-09T12:18:01.493Z,26.67
2023-09-09T12:20:46.485Z,26.67
2023-09-09T12:23:31.573Z,26.80
2023-09-09T12:26:16.637Z,26.78
2023-09-09T12:29:01.733Z,26.71
2023-09-09T12:31:46.847Z,26.76
2023-09-09T12:34:31.819Z,26.72
2023-09-09T12:37:16.968Z,26.76
2023-09-09T12:40:02.098Z,26.79
2023-09-09T12:42:47.224Z,26.90
2023-09-09T12:45:32.310Z,26.94
2023-09-09T12:48:17.412Z,27.15
2023-09-09T12:51:02.534Z,26.85
2023-09-09T12:53:47.607Z,26.78
2023-09-09T12:56:32.844Z,26.84
2023-09-09T12:59:17.818Z,26.85
2023-09-09T13:02:03.022Z,27.07
2023-09-09T13:04:48.080Z,27.04
2023-09-09T13:07:33.295Z,26.96
2023-09-09T13:10:18.363Z,26.97
2023-09-09T13:13:03.527Z,26.94
2023-09-09T13:15:48.865Z,27.06
2023-09-09T13:18:33.816Z,27.11
2023-09-09T13:21:18.982Z,27.21
2023-09-09T13:24:04.051Z,27.31
2023-09-09T13:26:49.166Z,27.29
2023-09-09T13:29:34.188Z,27.35
2023-09-09T13:32:19.473Z,27.39
2023-09-09T13:35:04.544Z,27.41
2023-09-09T13:37:49.668Z,27.37
2023-09-09T13:40:34.806Z,27.25
2023-09-09T13:43:19.871Z,27.26
2023-09-09T13:46:04.996Z,27.20
2023-09-09T13:48:49.837Z,27.11
2023-09-09T13:51:35.018Z,27.12
2023-09-09T13:54:20.104Z,27.15
2023-09-09T13:57:05.171Z,27.27
2023-09-09T13:59:50.277Z,27.35
2023-09-09T14:02:35.419Z,27.47
2023-09-09T14:05:20.521Z,27.63
2023-09-09T14:08:05.525Z,27.54
2023-09-09T14:10:50.666Z,27.58
2023-09-09T14:13:35.839Z,27.65
2023-09-09T14:16:20.921Z,27.60
2023-09-09T14:19:06.190Z,27.60
2023-09-09T14:21:51.255Z,27.63
2023-09-09T14:24:36.287Z,27.73
2023-09-09T14:27:21.261Z,27.79
2023-09-09T14:30:06.337Z,27.88
2023-09-09T14:32:51.492Z,27.90
2023-09-09T14:35:36.585Z,27.93
2023-09-09T14:38:21.712Z,27.92
2023-09-09T14:41:06.894Z,27.93
2023-09-09T14:43:52.067Z,27.93
2023-09-09T14:46:37.350Z,27.88
2023-09-09T14:49:22.614Z,27.86
2023-09-09T14:52:07.603Z,27.91
2023-09-09T14:54:52.981Z,27.95
2023-09-09T14:57:38.116Z,27.91
2023-09-09T15:00:23.278Z,27.90
2023-09-09T15:03:08.575Z,27.92
2023-09-09T15:05:53.679Z,27.93
2023-09-09T15:08:39.056Z,27.94
2023-09-09T15:11:24.359Z,27.94
2023-09-09T15:14:09.491Z,27.85
2023-09-09T15:16:54.638Z,27.77
2023-09-09T15:19:39.737Z,27.75
2023-09-09T15:22:24.929Z,27.72
2023-09-09T15:25:09.782Z,27.68
2023-09-09T15:27:54.987Z,27.62
2023-09-09T15:30:39.991Z,27.54
2023-09-09T15:33:25.005Z,27.49
2023-09-09T15:36:10.066Z,27.47
2023-09-09T15:38:55.152Z,27.43
2023-09-09T15:41:40.447Z,27.39
2023-09-09T15:44:25.667Z,27.38
2023-09-09T15:47:10.681Z,27.33
2023-09-09T15:49:55.801Z,27.27
2023-09-09T15:52:40.801Z,27.20
2023-09-09T15:55:25.828Z,27.16
2023-09-09T15:58:11.097Z,27.08
2023-09-09T16:00:56.186Z,26.97
2023-09-09T16:03:41.268Z,26.94
2023-09-09T16:06:26.222Z,26.88
2023-09-09T16:09:11.192Z,26.77
2023-09-09T16:11:56.319Z,26.67
2023-09-09T16:14:41.541Z,26.56
2023-09-09T16:17:26.648Z,26.51
2023-09-09T16:20:11.751Z,26.48
2023-09-09T16:22:56.846Z,26.40
2023-09-09T16:25:42.112Z,26.36
2023-09-09T16:28:27.079Z,26.27
2023-09-09T16:31:12.248Z,26.29
2023-09-09T16:33:57.148Z,26.24
2023-09-09T16:36:42.187Z,26.17
2023-09-09T16:39:27.311Z,26.18
2023-09-09T16:42:12.295Z,26.20
2023-09-09T16:44:57.484Z,26.16
2023-09-09T16:47:42.531Z,26.17
2023-09-09T16:50:27.762Z,26.13
2023-09-09T16:53:12.684Z,26.13
2023-09-09T16:55:57.870Z,26.06
2023-09-09T16:58:42.969Z,26.00
2023-09-09T17:01:28.297Z,25.93
2023-09-09T17:04:13.237Z,25.97
2023-09-09T17:06:58.239Z,25.89
2023-09-09T17:09:43.151Z,25.82
2023-09-09T17:12:28.294Z,25.72
2023-09-09T17:15:13.534Z,25.64
2023-09-09T17:17:58.633Z,25.54
2023-09-09T17:20:43.628Z,25.49
2023-09-09T17:23:28.763Z,25.46
2023-09-09T17:26:13.984Z,25.36
2023-09-09T17:28:59.161Z,25.25
2023-09-09T17:31:44.335Z,25.29
2023-09-09T17:34:29.428Z,25.34
2023-09-09T17:37:14.642Z,25.34
2023-09-09T17:39:59.789Z,25.25
2023-09-09T17:42:44.838Z,25.15
2023-09-09T17:45:29.782Z,25.05
2023-09-09T17:48:15.186Z,24.91
2023-09-09T17:51:00.128Z,24.89
2023-09-09T17:53:45.312Z,24.86
2023-09-09T17:56:33.041Z,24.81
2023-09-09T17:59:19.463Z,24.68
2023-09-09T18:02:04.586Z,24.64
2023-09-09T18:04:49.581Z,24.58
2023-09-09T18:07:34.823Z,24.57
2023-09-09T18:10:19.804Z,24.59
2023-09-09T18:13:04.789Z,24.59
2023-09-09T18:15:49.956Z,24.56
2023-09-09T18:18:34.926Z,24.54
2023-09-09T18:21:20.153Z,24.46
2023-09-09T18:24:05.105Z,24.38
2023-09-09T18:26:50.351Z,24.26
2023-09-09T18:29:35.423Z,24.22
2023-09-09T18:32:20.663Z,24.17
2023-09-09T18:35:05.941Z,24.12
2023-09-09T18:37:50.881Z,24.09
2023-09-09T18:40:36.200Z,24.12
2023-09-09T18:43:21.264Z,24.18
2023-09-09T18:46:06.381Z,24.18
2023-09-09T18:48:51.315Z,24.12
2023-09-09T18:51:36.372Z,24.08
2023-09-09T18:54:21.541Z,24.02
2023-09-09T18:57:06.885Z,23.98
2023-09-09T18:59:51.771Z,23.90
2023-09-09T19:02:37.091Z,23.88
2023-09-09T19:05:22.718Z,23.89
2023-09-09T19:08:07.549Z,23.84
2023-09-09T19:10:52.723Z,23.81
2023-09-09T19:13:37.711Z,23.83
2023-09-09T19:16:22.795Z,23.79
2023-09-09T19:19:07.716Z,23.74
2023-09-09T19:21:52.878Z,23.76
2023-09-09T19:24:38.068Z,23.72
2023-09-09T19:27:23.136Z,23.67
2023-09-09T19:30:08.210Z,23.60
2023-09-09T19:32:53.569Z,23.55
2023-09-09T19:35:38.468Z,23.49
2023-09-09T19:38:23.651Z,23.43
2023-09-09T19:41:08.725Z,23.40
2023-09-09T19:43:53.916Z,23.28
2023-09-09T19:46:38.924Z,23.32
2023-09-09T19:49:24.238Z,23.30
2023-09-09T19:52:09.278Z,23.32
2023-09-09T19:54:54.315Z,23.20
2023-09-09T19:57:39.574Z,23.15
2023-09-09T20:00:24.657Z,23.09
2023-09-09T20:03:09.994Z,23.17
2023-09-09T20:05:54.946Z,23.11
2023-09-09T20:08:40.369Z,23.12
2023-09-09T20:11:25.291Z,23.08
2023-09-09T20:14:10.428Z,23.17
2023-09-09T20:16:55.674Z,23.04
2023-09-09T20:19:40.644Z,23.03
2023-09-09T20:22:28.315Z,22.95
2023-09-09T20:25:14.360Z,22.93
2023-09-09T20:27:59.428Z,22.83
2023-09-09T20:30:44.728Z,22.79
2023-09-09T20:33:29.726Z,22.79
2023-09-09T20:36:15.044Z,22.70
2023-09-09T20:39:00.057Z,22.63
2023-09-09T20:41:45.222Z,22.57
2023-09-09T20:44:30.370Z,22.50
2023-09-09T20:47:15.525Z,22.45
2023-09-09T20:50:00.603Z,22.37
2023-09-09T20:52:45.494Z,22.30
2023-09-09T20:55:30.769Z,22.32
2023-09-09T20:58:15.803Z,22.23
2023-09-09T21:01:00.965Z,22.24
2023-09-09T21:03:46.064Z,22.27
2023-09-09T21:06:31.240Z,22.29
2023-09-09T21:09:16.471Z,22.44
2023-09-09T21:12:01.404Z,22.55
2023-09-09T21:14:46.534Z,22.59
2023-09-09T21:17:31.638Z,22.72
2023-09-09T21:20:16.604Z,22.78
2023-09-09T21:23:01.664Z,22.84
2023-09-09T21:25:46.812Z,22.92
2023-09-09T21:28:31.970Z,22.94
2023-09-09T21:31:17.021Z,22.93
2023-09-09T21:34:02.136Z,23.04
2023-09-09T21:36:47.171Z,23.09
2023-09-09T21:39:32.430Z,23.21
2023-09-09T21:42:17.545Z,23.19
2023-09-09T21:45:02.709Z,23.21
2023-09-09T21:47:47.882Z,23.30
2023-09-09T21:50:32.930Z,23.41
2023-09-09T21:53:18.169Z,23.51
2023-09-09T21:56:03.246Z,23.60
2023-09-09T21:58:48.496Z,23.44
2023-09-09T22:01:33.412Z,23.23
2023-09-09T22:04:18.558Z,23.21
2023-09-09T22:07:03.714Z,23.35
2023-09-09T22:09:48.878Z,23.40
2023-09-09T22:12:34.125Z,23.40
2023-09-09T22:15:19.269Z,23.42
2023-09-09T22:18:04.600Z,23.42
2023-09-09T22:20:49.487Z,23.36
2023-09-09T22:23:34.730Z,23.36
2023-09-09T22:26:19.917Z,23.28
2023-09-09T22:29:05.024Z,23.28
2023-09-09T22:31:50.177Z,23.28
2023-09-09T22:34:35.208Z,23.09
2023-09-09T22:37:20.349Z,23.18
2023-09-09T22:40:05.575Z,23.33
2023-09-09T22:42:50.714Z,23.27
2023-09-09T22:45:35.839Z,23.23
2023-09-09T22:48:20.859Z,23.38
2023-09-09T22:51:06.043Z,23.32
2023-09-09T22:53:51.095Z,23.12
2023-09-09T22:56:36.289Z,23.11
2023-09-09T22:59:21.464Z,22.90
2023-09-09T23:02:06.640Z,22.79
2023-09-09T23:04:51.713Z,22.68
2023-09-09T23:07:49.958Z,22.49
2023-09-09T23:10:35.231Z,22.36
2023-09-09T23:13:20.242Z,22.24
2023-09-09T23:16:05.468Z,22.25
2023-09-09T23:18:50.399Z,22.44
2023-09-09T23:21:35.631Z,22.24
2023-09-09T23:24:20.752Z,22.09
2023-09-09T23:27:05.835Z,21.98
2023-09-09T23:29:50.811Z,21.86
2023-09-09T23:32:36.013Z,21.76
2023-09-09T23:35:21.061Z,21.82
2023-09-09T23:38:06.296Z,21.84
2023-09-09T23:40:51.548Z,21.81
2023-09-09T23:43:36.622Z,21.91
2023-09-09T23:46:21.740Z,21.92
2023-09-09T23:49:06.783Z,21.80
2023-09-09T23:51:51.895Z,21.73
2023-09-09T23:54:37.006Z,21.61
2023-09-09T23:57:22.092Z,21.61
